WTB27P LOWW-EDDS
Flight info
| Callsign | WTB27P |
|---|---|
| Flight time | 0h 54m |
| Altitude | 30000 |
| Route | LUGEM DCT KIRDI DCT EBEDA L173 MAH/N0357F240 L173 DODIL T127 TEKSI TEKSI1W |
| Aircraft | A20N/M-SDE2E3FGHIRWXY/LB1 |
Departure
| Time | 2026-05-07 20:06 |
|---|---|
| Airport | Vienna International Airport (LOWW) |
Arrival
| Time | 2026-05-07 21:00 |
|---|---|
| Airport | Stuttgart Airport (EDDS) |
| Time | Latitude | Longitude | Altitude | Speed | Heading |
|---|---|---|---|---|---|
| 2026-05-07 19:30 | 48.11980 | 16.55827 | 598 ft | 0 kts | 297° |
| 2026-05-07 19:54 | 48.11979 | 16.55830 | 598 ft | 2 kts | 296° |
| 2026-05-07 19:54 | 48.11971 | 16.55864 | 598 ft | 4 kts | 262° |
| 2026-05-07 19:54 | 48.11982 | 16.55895 | 598 ft | 4 kts | 214° |
| 2026-05-07 19:55 | 48.12002 | 16.55912 | 597 ft | 0 kts | 207° |
| 2026-05-07 19:58 | 48.11981 | 16.55896 | 598 ft | 7 kts | 207° |
| 2026-05-07 19:59 | 48.11929 | 16.55855 | 601 ft | 7 kts | 205° |
| 2026-05-07 19:59 | 48.11893 | 16.55856 | 604 ft | 3 kts | 174° |
| 2026-05-07 19:59 | 48.11885 | 16.55857 | 614 ft | 2 kts | 176° |
| 2026-05-07 19:59 | 48.11846 | 16.55854 | 607 ft | 9 kts | 188° |
| 2026-05-07 20:00 | 48.11769 | 16.55855 | 618 ft | 14 kts | 147° |
| 2026-05-07 20:00 | 48.11736 | 16.55939 | 620 ft | 13 kts | 116° |
| 2026-05-07 20:00 | 48.11689 | 16.56084 | 617 ft | 11 kts | 116° |
| 2026-05-07 20:00 | 48.11656 | 16.56185 | 622 ft | 11 kts | 116° |
| 2026-05-07 20:01 | 48.11636 | 16.56249 | 614 ft | 10 kts | 116° |
| 2026-05-07 20:01 | 48.11609 | 16.56331 | 627 ft | 8 kts | 116° |
| 2026-05-07 20:01 | 48.11588 | 16.56395 | 612 ft | 6 kts | 116° |
| 2026-05-07 20:01 | 48.11569 | 16.56452 | 614 ft | 6 kts | 116° |
| 2026-05-07 20:02 | 48.11539 | 16.56543 | 619 ft | 14 kts | 116° |
| 2026-05-07 20:02 | 48.11497 | 16.56673 | 623 ft | 12 kts | 116° |
| 2026-05-07 20:02 | 48.11464 | 16.56776 | 622 ft | 11 kts | 115° |
| 2026-05-07 20:02 | 48.11424 | 16.56901 | 620 ft | 14 kts | 116° |
| 2026-05-07 20:03 | 48.11389 | 16.57010 | 621 ft | 10 kts | 116° |
| 2026-05-07 20:03 | 48.11347 | 16.57058 | 620 ft | 6 kts | 176° |
| 2026-05-07 20:03 | 48.11308 | 16.57056 | 622 ft | 5 kts | 177° |
| 2026-05-07 20:03 | 48.11272 | 16.57091 | 622 ft | 8 kts | 127° |
| 2026-05-07 20:04 | 48.11244 | 16.57175 | 626 ft | 10 kts | 114° |
| 2026-05-07 20:04 | 48.11211 | 16.57272 | 626 ft | 12 kts | 117° |
| 2026-05-07 20:04 | 48.11167 | 16.57404 | 625 ft | 17 kts | 115° |
| 2026-05-07 20:04 | 48.11115 | 16.57577 | 621 ft | 16 kts | 114° |
| 2026-05-07 20:05 | 48.11041 | 16.57647 | 627 ft | 13 kts | 190° |
| 2026-05-07 20:05 | 48.10987 | 16.57609 | 620 ft | 6 kts | 212° |
| 2026-05-07 20:05 | 48.10955 | 16.57579 | 620 ft | 5 kts | 212° |
| 2026-05-07 20:05 | 48.10930 | 16.57514 | 624 ft | 10 kts | 266° |
| 2026-05-07 20:06 | 48.10964 | 16.57379 | 627 ft | 26 kts | 297° |
| 2026-05-07 20:06 | 48.11172 | 16.56728 | 632 ft | 109 kts | 297° |
| 2026-05-07 20:06 | 48.11599 | 16.55391 | 652 ft | 169 kts | 295° |
| 2026-05-07 20:06 | 48.12155 | 16.53794 | 1389 ft | 176 kts | 290° |
| 2026-05-07 20:07 | 48.12358 | 16.52003 | 2377 ft | 175 kts | 268° |
| 2026-05-07 20:07 | 48.12180 | 16.50139 | 2961 ft | 188 kts | 261° |
| 2026-05-07 20:07 | 48.11902 | 16.48147 | 3202 ft | 209 kts | 260° |
| 2026-05-07 20:07 | 48.11516 | 16.45831 | 3540 ft | 231 kts | 257° |
| 2026-05-07 20:08 | 48.11051 | 16.43450 | 4195 ft | 239 kts | 256° |
| 2026-05-07 20:08 | 48.10579 | 16.41036 | 4808 ft | 251 kts | 257° |
| 2026-05-07 20:08 | 48.10098 | 16.38476 | 5412 ft | 262 kts | 257° |
| 2026-05-07 20:08 | 48.09846 | 16.35749 | 6188 ft | 264 kts | 272° |
| 2026-05-07 20:09 | 48.09870 | 16.33011 | 6930 ft | 269 kts | 273° |
| 2026-05-07 20:09 | 48.09913 | 16.30147 | 7728 ft | 273 kts | 272° |
| 2026-05-07 20:09 | 48.09961 | 16.27301 | 8524 ft | 276 kts | 272° |
| 2026-05-07 20:10 | 48.10064 | 16.21455 | 10140 ft | 282 kts | 272° |
| 2026-05-07 20:10 | 48.10269 | 16.18495 | 10656 ft | 294 kts | 278° |
| 2026-05-07 20:10 | 48.10556 | 16.15378 | 10857 ft | 317 kts | 278° |
| 2026-05-07 20:10 | 48.10865 | 16.12049 | 11342 ft | 327 kts | 277° |
| 2026-05-07 20:11 | 48.11180 | 16.08647 | 12032 ft | 331 kts | 277° |
| 2026-05-07 20:11 | 48.11492 | 16.05217 | 12753 ft | 334 kts | 277° |
| 2026-05-07 20:11 | 48.11814 | 16.01645 | 13493 ft | 337 kts | 276° |
| 2026-05-07 20:11 | 48.12125 | 15.98164 | 14149 ft | 340 kts | 276° |
| 2026-05-07 20:12 | 48.12440 | 15.94637 | 14779 ft | 342 kts | 276° |
| 2026-05-07 20:12 | 48.12755 | 15.91083 | 15372 ft | 346 kts | 277° |
| 2026-05-07 20:12 | 48.13070 | 15.87496 | 15992 ft | 348 kts | 277° |
| 2026-05-07 20:12 | 48.13382 | 15.83940 | 16602 ft | 351 kts | 276° |
| 2026-05-07 20:13 | 48.13705 | 15.80259 | 17203 ft | 354 kts | 276° |
| 2026-05-07 20:13 | 48.14030 | 15.76571 | 17824 ft | 356 kts | 277° |
| 2026-05-07 20:13 | 48.14357 | 15.72844 | 18421 ft | 359 kts | 277° |
| 2026-05-07 20:13 | 48.14682 | 15.69124 | 18912 ft | 362 kts | 276° |
| 2026-05-07 20:14 | 48.15010 | 15.65340 | 19420 ft | 365 kts | 276° |
| 2026-05-07 20:14 | 48.15337 | 15.61539 | 19920 ft | 367 kts | 276° |
| 2026-05-07 20:14 | 48.15664 | 15.57731 | 20424 ft | 370 kts | 276° |
| 2026-05-07 20:14 | 48.15989 | 15.53900 | 20933 ft | 372 kts | 276° |
| 2026-05-07 20:15 | 48.16313 | 15.50064 | 21449 ft | 373 kts | 276° |
| 2026-05-07 20:15 | 48.16637 | 15.46176 | 21950 ft | 375 kts | 276° |
| 2026-05-07 20:15 | 48.16958 | 15.42319 | 22424 ft | 377 kts | 276° |
| 2026-05-07 20:15 | 48.17239 | 15.38358 | 22882 ft | 379 kts | 271° |
| 2026-05-07 20:16 | 48.17334 | 15.34392 | 23336 ft | 382 kts | 271° |
| 2026-05-07 20:16 | 48.17432 | 15.30396 | 23761 ft | 384 kts | 271° |
| 2026-05-07 20:16 | 48.17497 | 15.27740 | 24013 ft | 385 kts | 271° |
| 2026-05-07 20:16 | 48.17594 | 15.23667 | 24415 ft | 387 kts | 271° |
| 2026-05-07 20:17 | 48.17691 | 15.19571 | 24804 ft | 389 kts | 271° |
| 2026-05-07 20:17 | 48.17784 | 15.15575 | 25181 ft | 390 kts | 271° |
| 2026-05-07 20:17 | 48.17878 | 15.11450 | 25561 ft | 392 kts | 271° |
| 2026-05-07 20:17 | 48.17969 | 15.07406 | 25956 ft | 392 kts | 271° |
| 2026-05-07 20:18 | 48.18057 | 15.03314 | 26336 ft | 394 kts | 271° |
| 2026-05-07 20:18 | 48.18146 | 14.99196 | 26704 ft | 395 kts | 271° |
| 2026-05-07 20:18 | 48.18239 | 14.95026 | 27068 ft | 397 kts | 271° |
| 2026-05-07 20:18 | 48.18330 | 14.90883 | 27422 ft | 398 kts | 271° |
| 2026-05-07 20:19 | 48.18420 | 14.86665 | 27773 ft | 400 kts | 271° |
| 2026-05-07 20:19 | 48.18507 | 14.82491 | 28119 ft | 402 kts | 271° |
| 2026-05-07 20:19 | 48.18593 | 14.78295 | 28460 ft | 403 kts | 271° |
| 2026-05-07 20:19 | 48.18677 | 14.74089 | 28794 ft | 405 kts | 271° |
| 2026-05-07 20:20 | 48.18757 | 14.69917 | 29113 ft | 407 kts | 271° |
| 2026-05-07 20:20 | 48.18836 | 14.65553 | 29451 ft | 409 kts | 271° |
| 2026-05-07 20:20 | 48.18911 | 14.61272 | 29742 ft | 411 kts | 271° |
| 2026-05-07 20:20 | 48.18986 | 14.56976 | 30006 ft | 413 kts | 271° |
| 2026-05-07 20:21 | 48.19061 | 14.52700 | 30065 ft | 402 kts | 271° |
| 2026-05-07 20:21 | 48.19200 | 14.44568 | 30073 ft | 388 kts | 271° |
| 2026-05-07 20:22 | 48.19334 | 14.36448 | 30076 ft | 387 kts | 270° |
| 2026-05-07 20:22 | 48.19459 | 14.28326 | 30091 ft | 386 kts | 270° |
| 2026-05-07 20:23 | 48.19587 | 14.20268 | 30078 ft | 387 kts | 271° |
| 2026-05-07 20:23 | 48.19706 | 14.12200 | 30079 ft | 387 kts | 271° |
| 2026-05-07 20:24 | 48.19814 | 14.04077 | 30055 ft | 387 kts | 271° |
| 2026-05-07 20:24 | 48.19909 | 13.96010 | 30070 ft | 387 kts | 271° |
| 2026-05-07 20:25 | 48.20005 | 13.87957 | 30059 ft | 386 kts | 271° |
| 2026-05-07 20:25 | 48.20099 | 13.79793 | 30066 ft | 386 kts | 271° |
| 2026-05-07 20:26 | 48.20186 | 13.71732 | 30062 ft | 387 kts | 271° |
| 2026-05-07 20:26 | 48.20271 | 13.63655 | 30053 ft | 387 kts | 271° |
| 2026-05-07 20:27 | 48.20348 | 13.55591 | 30051 ft | 387 kts | 271° |
| 2026-05-07 20:27 | 48.20419 | 13.47519 | 30052 ft | 387 kts | 271° |
| 2026-05-07 20:28 | 48.20487 | 13.39373 | 30056 ft | 387 kts | 270° |
| 2026-05-07 20:28 | 48.20542 | 13.31299 | 30049 ft | 387 kts | 271° |
| 2026-05-07 20:29 | 48.20594 | 13.23198 | 30046 ft | 388 kts | 270° |
| 2026-05-07 20:29 | 48.20643 | 13.15086 | 30049 ft | 388 kts | 270° |
| 2026-05-07 20:30 | 48.20686 | 13.06991 | 30063 ft | 389 kts | 270° |
| 2026-05-07 20:30 | 48.20718 | 12.99840 | 30059 ft | 388 kts | 270° |
| 2026-05-07 20:31 | 48.20749 | 12.91748 | 30066 ft | 389 kts | 270° |
| 2026-05-07 20:31 | 48.20770 | 12.83640 | 30058 ft | 389 kts | 270° |
| 2026-05-07 20:32 | 48.20336 | 12.75561 | 30055 ft | 389 kts | 264° |
| 2026-05-07 20:32 | 48.19803 | 12.67526 | 30054 ft | 389 kts | 265° |
| 2026-05-07 20:33 | 48.19270 | 12.59405 | 30062 ft | 389 kts | 265° |
| 2026-05-07 20:33 | 48.18735 | 12.51330 | 30059 ft | 389 kts | 264° |
| 2026-05-07 20:34 | 48.18182 | 12.43259 | 30059 ft | 389 kts | 264° |
| 2026-05-07 20:34 | 48.17617 | 12.35189 | 30063 ft | 389 kts | 264° |
| 2026-05-07 20:35 | 48.17048 | 12.27134 | 30062 ft | 389 kts | 264° |
| 2026-05-07 20:35 | 48.16487 | 12.19129 | 30061 ft | 389 kts | 264° |
| 2026-05-07 20:36 | 48.16149 | 12.11064 | 30056 ft | 388 kts | 274° |
| 2026-05-07 20:36 | 48.16680 | 12.03015 | 30065 ft | 388 kts | 275° |
| 2026-05-07 20:37 | 48.17203 | 11.94942 | 30061 ft | 389 kts | 275° |
| 2026-05-07 20:37 | 48.17707 | 11.87033 | 30062 ft | 389 kts | 275° |
| 2026-05-07 20:38 | 48.18524 | 11.78806 | 30063 ft | 389 kts | 283° |
| 2026-05-07 20:38 | 48.19840 | 11.70921 | 30071 ft | 390 kts | 283° |
| 2026-05-07 20:39 | 48.21141 | 11.63033 | 30074 ft | 390 kts | 283° |
| 2026-05-07 20:39 | 48.22442 | 11.55146 | 30073 ft | 389 kts | 283° |
| 2026-05-07 20:40 | 48.23743 | 11.47267 | 30078 ft | 389 kts | 283° |
| 2026-05-07 20:40 | 48.25032 | 11.39341 | 30069 ft | 389 kts | 283° |
| 2026-05-07 20:41 | 48.26760 | 11.31565 | 30083 ft | 397 kts | 298° |
| 2026-05-07 20:41 | 48.28289 | 11.28230 | 30087 ft | 409 kts | 309° |
| 2026-05-07 20:41 | 48.30301 | 11.25076 | 30087 ft | 417 kts | 312° |
| 2026-05-07 20:42 | 48.34391 | 11.18772 | 30086 ft | 419 kts | 312° |
| 2026-05-07 20:42 | 48.36592 | 11.15359 | 28542 ft | 430 kts | 312° |
| 2026-05-07 20:42 | 48.38536 | 11.12333 | 26812 ft | 448 kts | 312° |
| 2026-05-07 20:42 | 48.40740 | 11.08896 | 25594 ft | 456 kts | 312° |
| 2026-05-07 20:43 | 48.42899 | 11.05536 | 25334 ft | 440 kts | 312° |
| 2026-05-07 20:43 | 48.44995 | 11.02279 | 25209 ft | 421 kts | 312° |
| 2026-05-07 20:43 | 48.46995 | 10.99163 | 25073 ft | 405 kts | 312° |
| 2026-05-07 20:43 | 48.48925 | 10.96156 | 24947 ft | 384 kts | 312° |
| 2026-05-07 20:44 | 48.50711 | 10.93368 | 24809 ft | 359 kts | 311° |
| 2026-05-07 20:44 | 48.52396 | 10.90703 | 24348 ft | 346 kts | 311° |
| 2026-05-07 20:44 | 48.54027 | 10.88089 | 23714 ft | 339 kts | 311° |
| 2026-05-07 20:44 | 48.55630 | 10.85496 | 22923 ft | 336 kts | 310° |
| 2026-05-07 20:45 | 48.57221 | 10.82917 | 22162 ft | 333 kts | 310° |
| 2026-05-07 20:45 | 48.58848 | 10.80290 | 21446 ft | 329 kts | 310° |
| 2026-05-07 20:45 | 48.60378 | 10.77839 | 20756 ft | 325 kts | 311° |
| 2026-05-07 20:45 | 48.61940 | 10.75360 | 20059 ft | 322 kts | 311° |
| 2026-05-07 20:46 | 48.63476 | 10.72936 | 19388 ft | 320 kts | 311° |
| 2026-05-07 20:46 | 48.65006 | 10.70518 | 18761 ft | 317 kts | 311° |
| 2026-05-07 20:46 | 48.66528 | 10.68112 | 18284 ft | 315 kts | 311° |
| 2026-05-07 20:46 | 48.68042 | 10.65706 | 18020 ft | 316 kts | 311° |
| 2026-05-07 20:47 | 48.69545 | 10.63308 | 17759 ft | 315 kts | 311° |
| 2026-05-07 20:47 | 48.71028 | 10.60866 | 17491 ft | 314 kts | 305° |
| 2026-05-07 20:47 | 48.72145 | 10.58048 | 17218 ft | 309 kts | 291° |
| 2026-05-07 20:47 | 48.72738 | 10.54956 | 16960 ft | 306 kts | 277° |
| 2026-05-07 20:48 | 48.72805 | 10.51736 | 16696 ft | 305 kts | 264° |
| 2026-05-07 20:48 | 48.72545 | 10.48575 | 16427 ft | 300 kts | 263° |
| 2026-05-07 20:48 | 48.72284 | 10.45439 | 16073 ft | 299 kts | 263° |
| 2026-05-07 20:48 | 48.72030 | 10.42327 | 15714 ft | 299 kts | 263° |
| 2026-05-07 20:49 | 48.71777 | 10.39209 | 15358 ft | 298 kts | 263° |
| 2026-05-07 20:49 | 48.71522 | 10.36071 | 14999 ft | 298 kts | 263° |
| 2026-05-07 20:49 | 48.71265 | 10.32960 | 14625 ft | 299 kts | 263° |
| 2026-05-07 20:49 | 48.71005 | 10.29843 | 14258 ft | 299 kts | 263° |
| 2026-05-07 20:50 | 48.70742 | 10.26705 | 13891 ft | 299 kts | 263° |
| 2026-05-07 20:50 | 48.70482 | 10.23592 | 13494 ft | 299 kts | 263° |
| 2026-05-07 20:50 | 48.70213 | 10.20388 | 13112 ft | 298 kts | 263° |
| 2026-05-07 20:50 | 48.69952 | 10.17310 | 12747 ft | 297 kts | 263° |
| 2026-05-07 20:51 | 48.69690 | 10.14218 | 12381 ft | 296 kts | 263° |
| 2026-05-07 20:51 | 48.69429 | 10.11161 | 11995 ft | 295 kts | 263° |
| 2026-05-07 20:51 | 48.69174 | 10.08087 | 11616 ft | 294 kts | 265° |
| 2026-05-07 20:51 | 48.69254 | 10.04999 | 11226 ft | 293 kts | 279° |
| 2026-05-07 20:52 | 48.69632 | 10.01984 | 10853 ft | 292 kts | 279° |
| 2026-05-07 20:52 | 48.70001 | 9.99000 | 10702 ft | 282 kts | 279° |
| 2026-05-07 20:52 | 48.70352 | 9.96116 | 10260 ft | 278 kts | 279° |
| 2026-05-07 20:52 | 48.70695 | 9.93259 | 9704 ft | 275 kts | 279° |
| 2026-05-07 20:53 | 48.70925 | 9.91329 | 9411 ft | 275 kts | 279° |
| 2026-05-07 20:53 | 48.71258 | 9.88521 | 9030 ft | 274 kts | 279° |
| 2026-05-07 20:53 | 48.71705 | 9.84736 | 8504 ft | 273 kts | 279° |
| 2026-05-07 20:53 | 48.71928 | 9.82841 | 8242 ft | 272 kts | 279° |
| 2026-05-07 20:54 | 48.72262 | 9.80013 | 7849 ft | 271 kts | 279° |
| 2026-05-07 20:54 | 48.72594 | 9.77201 | 7441 ft | 271 kts | 279° |
| 2026-05-07 20:54 | 48.72928 | 9.74385 | 7035 ft | 271 kts | 279° |
| 2026-05-07 20:54 | 48.73260 | 9.71572 | 6623 ft | 271 kts | 279° |
| 2026-05-07 20:55 | 48.73588 | 9.68772 | 6250 ft | 269 kts | 279° |
| 2026-05-07 20:55 | 48.73917 | 9.65961 | 5838 ft | 268 kts | 279° |
| 2026-05-07 20:55 | 48.74235 | 9.63242 | 5760 ft | 254 kts | 279° |
| 2026-05-07 20:55 | 48.74541 | 9.60635 | 5649 ft | 242 kts | 279° |
| 2026-05-07 20:56 | 48.74820 | 9.58194 | 5550 ft | 234 kts | 279° |
| 2026-05-07 20:56 | 48.75073 | 9.55673 | 5381 ft | 233 kts | 271° |
| 2026-05-07 20:56 | 48.74825 | 9.53266 | 5121 ft | 232 kts | 254° |
| 2026-05-07 20:56 | 48.74362 | 9.50810 | 4802 ft | 228 kts | 254° |
| 2026-05-07 20:57 | 48.73952 | 9.48621 | 4507 ft | 221 kts | 254° |
| 2026-05-07 20:57 | 48.73531 | 9.46370 | 4212 ft | 216 kts | 254° |
| 2026-05-07 20:57 | 48.73116 | 9.44146 | 3905 ft | 218 kts | 254° |
| 2026-05-07 20:57 | 48.72702 | 9.41934 | 3611 ft | 219 kts | 254° |
| 2026-05-07 20:58 | 48.72285 | 9.39708 | 3318 ft | 219 kts | 254° |
| 2026-05-07 20:58 | 48.71878 | 9.37538 | 3007 ft | 207 kts | 254° |
| 2026-05-07 20:58 | 48.71496 | 9.35503 | 2755 ft | 192 kts | 254° |
| 2026-05-07 20:58 | 48.71143 | 9.33630 | 2501 ft | 177 kts | 254° |
| 2026-05-07 20:59 | 48.70819 | 9.31903 | 2303 ft | 164 kts | 254° |
| 2026-05-07 20:59 | 48.70511 | 9.30267 | 2044 ft | 159 kts | 254° |
| 2026-05-07 20:59 | 48.70206 | 9.28651 | 1805 ft | 156 kts | 254° |
| 2026-05-07 20:59 | 48.69913 | 9.27098 | 1600 ft | 152 kts | 254° |
| 2026-05-07 21:00 | 48.69622 | 9.25598 | 1354 ft | 151 kts | 254° |
| 2026-05-07 21:00 | 48.69335 | 9.24014 | 1214 ft | 148 kts | 255° |
| 2026-05-07 21:00 | 48.69103 | 9.22728 | 1222 ft | 102 kts | 252° |
| 2026-05-07 21:00 | 48.68968 | 9.22085 | 1248 ft | 43 kts | 253° |
| 2026-05-07 21:01 | 48.68885 | 9.21639 | 1256 ft | 43 kts | 254° |
| 2026-05-07 21:01 | 48.68819 | 9.21237 | 1264 ft | 33 kts | 270° |
| 2026-05-07 21:01 | 48.68841 | 9.20947 | 1266 ft | 13 kts | 285° |
| 2026-05-07 21:01 | 48.68855 | 9.20868 | 1272 ft | 4 kts | 285° |
| 2026-05-07 21:02 | 48.68858 | 9.20853 | 1271 ft | 0 kts | 284° |
| 2026-05-07 21:02 | 48.68859 | 9.20846 | 1270 ft | 0 kts | 284° |
| 2026-05-07 21:02 | 48.68860 | 9.20838 | 1271 ft | 4 kts | 284° |
| 2026-05-07 21:02 | 48.68879 | 9.20761 | 1275 ft | 7 kts | 297° |
| 2026-05-07 21:03 | 48.68896 | 9.20727 | 1275 ft | 1 kts | 314° |
| 2026-05-07 21:03 | 48.68917 | 9.20697 | 1276 ft | 7 kts | 316° |
| 2026-05-07 21:03 | 48.68960 | 9.20632 | 1280 ft | 7 kts | 315° |
| 2026-05-07 21:03 | 48.69006 | 9.20560 | 1283 ft | 12 kts | 313° |
| 2026-05-07 21:04 | 48.69048 | 9.20492 | 1286 ft | 6 kts | 313° |
| 2026-05-07 21:04 | 48.69060 | 9.20451 | 1288 ft | 4 kts | 275° |
| 2026-05-07 21:04 | 48.69058 | 9.20417 | 1290 ft | 2 kts | 260° |
| 2026-05-07 21:04 | 48.69052 | 9.20376 | 1291 ft | 10 kts | 256° |
| 2026-05-07 21:05 | 48.69027 | 9.20249 | 1296 ft | 11 kts | 253° |
| 2026-05-07 21:05 | 48.69008 | 9.20146 | 1300 ft | 9 kts | 254° |
| 2026-05-07 21:05 | 48.68995 | 9.20083 | 1301 ft | 4 kts | 246° |
| 2026-05-07 21:05 | 48.68963 | 9.20067 | 1300 ft | 7 kts | 174° |
| 2026-05-07 21:06 | 48.68938 | 9.20079 | 1299 ft | 2 kts | 162° |
| 2026-05-07 21:06 | 48.68920 | 9.20087 | 1297 ft | 0 kts | 163° |